Leuchars, United Kingdom
Current Conditions -  °F | °C
As of 7:50 PM on Friday 31 Oct 2014 (Local Time) from EGQL Reporting Station
Overcast Overcast  
Wind Chill: 15°   Ceiling: 2500
Heat Index: 15°   Visibility: 6mi
Dew Point: 13°   Wind: 2mph
Humidity: 88%   Direction: 80°E
Pressure: 29.62"   Gusts: NA
Location:  56.38°N, 2.89°W
Report Text: EGQL 311950Z 08002KT 9999 OVC025 15/13 Q1003 BLU
Loading
Personal Weather Stations






























Interactive Weather Map
Tropical Storm Tracking
New forecast layout! Learn more

10-Day Weather Forecast

Advertisements
Track Severe Weather on mobile